Time,TemperatureF,DewpointF,PressureIn,WindDirection,WindDirectionDegrees,WindSpeedMPH,WindSpeedGustMPH,Humidity,HourlyPrecipIn,Conditions,Clouds,dailyrainin,SolarRadiationWatts/m^2,SoftwareType,DateUTC
2013-07-23 00:05:00,60.3,54.1,29.97,NNE,28,0.0,0.0,80,0.00,,,0.00,0,Wunderground v.1.15,2013-07-23 07:05:00,
2013-07-23 00:15:00,60.4,54.2,29.97,NNE,28,0.0,0.0,80,0.00,,,0.00,0,Wunderground v.1.15,2013-07-23 07:15:00,
2013-07-23 00:25:00,60.4,54.2,29.97,NNE,28,0.0,0.0,80,0.00,,,0.00,0,Wunderground v.1.15,2013-07-23 07:25:00,
2013-07-23 00:35:00,60.7,54.8,29.97,NNE,27,0.0,0.0,81,0.00,,,0.00,0,Wunderground v.1.15,2013-07-23 07:35:00,
2013-07-23 00:45:00,60.8,55.3,29.97,NNE,28,0.0,0.0,82,0.00,,,0.00,0,Wunderground v.1.15,2013-07-23 07:45:00,
2013-07-23 00:55:00,60.7,54.8,29.97,NNE,28,0.0,0.0,81,0.00,,,0.00,0,Wunderground v.1.15,2013-07-23 07:55:00,
2013-07-23 01:05:00,60.6,54.7,29.97,NNE,28,0.0,0.0,81,0.00,,,0.00,0,Wunderground v.1.15,2013-07-23 08:05:00,
2013-07-23 01:15:00,60.4,54.5,29.97,NNE,28,1.0,1.0,81,0.00,,,0.00,0,Wunderground v.1.15,2013-07-23 08:15:00,
2013-07-23 01:25:00,60.1,54.2,29.97,NNE,28,0.0,0.0,81,0.00,,,0.00,0,Wunderground v.1.15,2013-07-23 08:25:00,
2013-07-23 01:35:00,59.8,54.3,29.97,NNE,28,0.0,0.0,82,0.00,,,0.00,0,Wunderground v.1.15,2013-07-23 08:35:00,
2013-07-23 01:45:00,59.4,54.2,29.97,NNE,28,0.0,0.0,83,0.00,,,0.00,0,Wunderground v.1.15,2013-07-23 08:45:00,
2013-07-23 01:55:00,59.3,54.5,29.97,NNE,28,0.0,0.0,84,0.00,,,0.00,0,Wunderground v.1.15,2013-07-23 08:55:00,
2013-07-23 02:05:00,59.3,54.5,29.97,NNE,28,0.0,0.0,84,0.00,,,0.00,0,Wunderground v.1.15,2013-07-23 09:05:00,
2013-07-23 02:15:00,59.0,54.2,29.97,NNE,28,0.0,0.0,84,0.00,,,0.00,0,Wunderground v.1.15,2013-07-23 09:15:00,
2013-07-23 02:25:00,59.1,54.3,29.97,NNE,28,0.0,0.0,84,0.00,,,0.00,0,Wunderground v.1.15,2013-07-23 09:25:00,
2013-07-23 02:35:00,59.2,54.4,29.97,NE,36,0.0,2.0,84,0.00,,,0.00,0,Wunderground v.1.15,2013-07-23 09:35:00,
2013-07-23 02:45:00,59.2,54.4,29.97,NE,36,0.0,0.0,84,0.00,,,0.00,0,Wunderground v.1.15,2013-07-23 09:45:00,
2013-07-23 02:55:00,59.2,54.7,29.97,NE,36,0.0,0.0,85,0.00,,,0.00,0,Wunderground v.1.15,2013-07-23 09:55:00,
2013-07-23 03:05:00,59.4,54.9,29.97,NE,36,0.0,0.0,85,0.00,,,0.00,0,Wunderground v.1.15,2013-07-23 10:05:00,
2013-07-23 03:15:00,59.5,55.0,29.96,NNE,32,0.0,0.0,85,0.00,,,0.00,0,Wunderground v.1.15,2013-07-23 10:15:00,
2013-07-23 03:25:00,59.6,55.1,29.97,NNE,32,0.0,0.0,85,0.00,,,0.00,0,Wunderground v.1.15,2013-07-23 10:25:00,
2013-07-23 03:35:00,59.5,55.0,29.96,NNE,32,0.0,0.0,85,0.00,,,0.00,0,Wunderground v.1.15,2013-07-23 10:35:00,
2013-07-23 03:45:00,59.3,54.8,29.95,WNW,290,0.0,0.0,85,0.00,,,0.00,0,Wunderground v.1.15,2013-07-23 10:45:00,
2013-07-23 03:55:00,59.0,54.8,29.96,WSW,257,0.0,0.0,86,0.00,,,0.00,0,Wunderground v.1.15,2013-07-23 10:55:00,
2013-07-23 04:05:00,59.0,55.1,29.97,South,173,0.0,0.0,87,0.00,,,0.00,0,Wunderground v.1.15,2013-07-23 11:05:00,
2013-07-23 04:15:00,59.0,55.1,29.96,SSW,192,0.0,0.0,87,0.00,,,0.00,0,Wunderground v.1.15,2013-07-23 11:15:00,
2013-07-23 04:25:00,59.0,55.4,29.96,SW,235,0.0,0.0,88,0.00,,,0.00,0,Wunderground v.1.15,2013-07-23 11:25:00,
2013-07-23 04:35:00,59.2,55.6,29.96,WSW,239,0.0,0.0,88,0.00,,,0.00,0,Wunderground v.1.15,2013-07-23 11:35:00,
2013-07-23 04:45:00,58.9,55.0,29.97,WSW,239,0.0,0.0,87,0.00,,,0.00,0,Wunderground v.1.15,2013-07-23 11:45:00,
2013-07-23 04:55:00,58.6,54.7,29.98,WSW,239,0.0,0.0,87,0.00,,,0.00,0,Wunderground v.1.15,2013-07-23 11:55:00,
2013-07-23 05:05:00,58.3,54.4,29.99,SW,225,0.0,0.0,87,0.00,,,0.00,0,Wunderground v.1.15,2013-07-23 12:05:00,
2013-07-23 05:15:00,58.3,54.8,29.99,ESE,116,0.0,0.0,88,0.00,,,0.00,0,Wunderground v.1.15,2013-07-23 12:15:00,
2013-07-23 05:25:00,58.3,54.8,29.99,ESE,116,0.0,0.0,88,0.00,,,0.00,0,Wunderground v.1.15,2013-07-23 12:25:00,
2013-07-23 05:35:00,58.4,54.9,29.97,ESE,116,0.0,0.0,88,0.00,,,0.00,0,Wunderground v.1.15,2013-07-23 12:35:00,
2013-07-23 05:45:00,58.4,54.9,29.98,ESE,116,0.0,0.0,88,0.00,,,0.00,0,Wunderground v.1.15,2013-07-23 12:45:00,
2013-07-23 05:55:00,58.3,54.8,29.98,ESE,111,0.0,0.0,88,0.00,,,0.00,0,Wunderground v.1.15,2013-07-23 12:55:00,
2013-07-23 06:05:00,58.2,54.7,29.99,ENE,65,1.0,1.0,88,0.00,,,0.00,0,Wunderground v.1.15,2013-07-23 13:05:00,
2013-07-23 06:15:00,58.1,54.6,29.99,SE,125,1.0,1.0,88,0.00,,,0.00,7,Wunderground v.1.15,2013-07-23 13:15:00,
2013-07-23 06:25:00,58.4,54.9,29.97,SE,125,1.0,1.0,88,0.00,,,0.00,12,Wunderground v.1.15,2013-07-23 13:25:00,
2013-07-23 06:35:00,58.8,55.3,29.98,WSW,250,0.0,0.0,88,0.00,,,0.00,14,Wunderground v.1.15,2013-07-23 13:35:00,
2013-07-23 06:45:00,59.3,55.1,29.98,WSW,249,0.0,0.0,86,0.00,,,0.00,25,Wunderground v.1.15,2013-07-23 13:45:00,
2013-07-23 06:55:00,59.5,55.3,29.99,WSW,249,0.0,0.0,86,0.00,,,0.00,30,Wunderground v.1.15,2013-07-23 13:55:00,
2013-07-23 07:05:00,59.9,56.0,29.99,WSW,249,0.0,0.0,87,0.00,,,0.00,49,Wunderground v.1.15,2013-07-23 14:05:00,
2013-07-23 07:15:00,60.1,55.9,29.99,WSW,249,0.0,0.0,86,0.00,,,0.00,81,Wunderground v.1.15,2013-07-23 14:15:00,
2013-07-23 07:25:00,60.6,56.1,29.99,WSW,249,0.0,0.0,85,0.00,,,0.00,95,Wunderground v.1.15,2013-07-23 14:25:00,
2013-07-23 07:35:00,61.0,56.5,29.99,WSW,243,0.0,0.0,85,0.00,,,0.00,104,Wunderground v.1.15,2013-07-23 14:35:00,
2013-07-23 07:45:00,61.1,56.2,29.99,WSW,243,0.0,0.0,84,0.00,,,0.00,93,Wunderground v.1.15,2013-07-23 14:45:00,
2013-07-23 07:55:00,61.0,55.8,29.99,West,260,0.0,0.0,83,0.00,,,0.00,109,Wunderground v.1.15,2013-07-23 14:55:00,
2013-07-23 08:05:00,61.2,56.3,29.99,West,260,0.0,0.0,84,0.00,,,0.00,269,Wunderground v.1.15,2013-07-23 15:05:00,
2013-07-23 08:15:00,61.7,56.5,29.99,West,261,0.0,0.0,83,0.00,,,0.00,279,Wunderground v.1.15,2013-07-23 15:15:00,
2013-07-23 08:25:00,62.2,57.0,29.99,NNW,336,0.0,0.0,83,0.00,,,0.00,327,Wunderground v.1.15,2013-07-23 15:25:00,
2013-07-23 08:35:00,63.3,57.7,30.00,NNW,336,0.0,0.0,82,0.00,,,0.00,350,Wunderground v.1.15,2013-07-23 15:35:00,
2013-07-23 08:45:00,64.8,58.5,30.00,WSW,240,0.0,5.0,80,0.00,,,0.00,387,Wunderground v.1.15,2013-07-23 15:45:00,
2013-07-23 08:55:00,65.7,57.9,30.00,WSW,240,2.0,2.0,76,0.00,,,0.00,424,Wunderground v.1.15,2013-07-23 15:55:00,
2013-07-23 09:05:00,66.1,57.9,30.01,SW,217,2.0,2.0,75,0.00,,,0.00,274,Wunderground v.1.15,2013-07-23 16:05:00,
2013-07-23 09:15:00,66.9,58.0,30.01,SW,236,2.0,2.0,73,0.00,,,0.00,281,Wunderground v.1.15,2013-07-23 16:15:00,
2013-07-23 09:25:00,67.2,57.5,30.01,SW,236,1.0,1.0,71,0.00,,,0.00,519,Wunderground v.1.15,2013-07-23 16:25:00,
2013-07-23 09:35:00,68.3,58.5,30.00,SW,236,0.0,0.0,71,0.00,,,0.00,292,Wunderground v.1.15,2013-07-23 16:35:00,
2013-07-23 09:45:00,69.5,58.5,30.00,SW,235,1.0,4.0,68,0.00,,,0.00,606,Wunderground v.1.15,2013-07-23 16:45:00,
2013-07-23 09:55:00,70.7,57.9,30.00,SW,235,1.0,1.0,64,0.00,,,0.00,292,Wunderground v.1.15,2013-07-23 16:55:00,
2013-07-23 10:05:00,72.1,57.9,30.00,WNW,294,0.0,0.0,61,0.00,,,0.00,508,Wunderground v.1.15,2013-07-23 17:05:00,
2013-07-23 10:15:00,72.4,58.6,30.01,NW,304,1.0,1.0,62,0.00,,,0.00,526,Wunderground v.1.15,2013-07-23 17:15:00,
2013-07-23 10:25:00,71.9,58.2,30.01,NW,311,3.0,3.0,62,0.00,,,0.00,540,Wunderground v.1.15,2013-07-23 17:25:00,
2013-07-23 10:35:00,72.6,58.8,30.01,NNW,331,2.0,2.0,62,0.00,,,0.00,647,Wunderground v.1.15,2013-07-23 17:35:00,
2013-07-23 10:45:00,73.2,58.0,30.01,WNW,298,2.0,2.0,59,0.00,,,0.00,679,Wunderground v.1.15,2013-07-23 17:45:00,
2013-07-23 10:55:00,73.5,58.8,30.02,WNW,286,2.0,4.0,60,0.00,,,0.00,568,Wunderground v.1.15,2013-07-23 17:55:00,
2013-07-23 11:05:00,72.7,59.4,30.01,NNW,333,3.0,3.0,63,0.00,,,0.00,911,Wunderground v.1.15,2013-07-23 18:05:00,
2013-07-23 11:15:00,73.5,59.7,30.01,North,349,2.0,5.0,62,0.00,,,0.00,775,Wunderground v.1.15,2013-07-23 18:15:00,
2013-07-23 11:35:00,73.6,59.3,30.01,North,360,3.0,3.0,61,0.00,,,0.00,582,Wunderground v.1.15,2013-07-23 18:35:00,
2013-07-23 11:45:00,72.9,59.6,30.01,North,360,5.0,8.0,63,0.00,,,0.00,635,Wunderground v.1.15,2013-07-23 18:45:00,
2013-07-23 11:55:00,72.4,59.5,30.01,NNE,26,7.0,7.0,64,0.00,,,0.00,798,Wunderground v.1.15,2013-07-23 18:55:00,
2013-07-23 12:05:00,72.5,59.2,30.00,NNW,339,6.0,6.0,63,0.00,,,0.00,621,Wunderground v.1.15,2013-07-23 19:05:00,
2013-07-23 12:15:00,72.7,58.9,30.01,NNW,348,5.0,8.0,62,0.00,,,0.00,629,Wunderground v.1.15,2013-07-23 19:15:00,
2013-07-23 12:25:00,72.2,58.5,30.00,NE,52,5.0,8.0,62,0.00,,,0.00,643,Wunderground v.1.15,2013-07-23 19:25:00,
2013-07-23 12:35:00,71.8,58.5,30.01,NNE,23,7.0,7.0,63,0.00,,,0.00,534,Wunderground v.1.15,2013-07-23 19:35:00,
2013-07-23 12:45:00,71.7,58.4,30.01,North,355,6.0,6.0,63,0.00,,,0.00,563,Wunderground v.1.15,2013-07-23 19:45:00,
2013-07-23 12:55:00,71.7,58.0,30.01,NNE,22,6.0,6.0,62,0.00,,,0.00,554,Wunderground v.1.15,2013-07-23 19:55:00,
2013-07-23 13:05:00,71.5,56.9,30.01,NE,34,7.0,7.0,60,0.00,,,0.00,606,Wunderground v.1.15,2013-07-23 20:05:00,
2013-07-23 13:15:00,71.3,57.2,30.01,NNE,30,7.0,7.0,61,0.00,,,0.00,633,Wunderground v.1.15,2013-07-23 20:15:00,
2013-07-23 13:25:00,71.5,56.9,30.01,NNE,26,7.0,7.0,60,0.00,,,0.00,541,Wunderground v.1.15,2013-07-23 20:25:00,
2013-07-23 13:35:00,71.9,56.8,30.01,NE,36,5.0,8.0,59,0.00,,,0.00,568,Wunderground v.1.15,2013-07-23 20:35:00,
2013-07-23 13:45:00,72.1,57.0,30.01,NNE,17,5.0,6.0,59,0.00,,,0.00,580,Wunderground v.1.15,2013-07-23 20:45:00,
2013-07-23 13:55:00,72.5,56.9,30.01,NNE,24,6.0,6.0,58,0.00,,,0.00,647,Wunderground v.1.15,2013-07-23 20:55:00,
2013-07-23 14:05:00,72.4,56.3,30.00,NNE,20,6.0,10.0,57,0.00,,,0.00,575,Wunderground v.1.15,2013-07-23 21:05:00,
2013-07-23 14:15:00,72.6,57.0,30.00,NE,39,7.0,7.0,58,0.00,,,0.00,891,Wunderground v.1.15,2013-07-23 21:15:00,
2013-07-23 14:25:00,72.9,56.8,30.01,NNE,32,7.0,7.0,57,0.00,,,0.00,835,Wunderground v.1.15,2013-07-23 21:25:00,
2013-07-23 14:35:00,73.1,56.5,30.00,NNE,15,8.0,11.0,56,0.00,,,0.00,696,Wunderground v.1.15,2013-07-23 21:35:00,
2013-07-23 14:45:00,73.1,56.5,29.99,NNE,19,8.0,8.0,56,0.00,,,0.00,654,Wunderground v.1.15,2013-07-23 21:45:00,
2013-07-23 14:55:00,73.1,56.0,29.99,NNE,33,8.0,9.0,55,0.00,,,0.00,691,Wunderground v.1.15,2013-07-23 21:55:00,
2013-07-23 15:05:00,73.2,56.1,29.99,NNE,32,8.0,9.0,55,0.00,,,0.00,657,Wunderground v.1.15,2013-07-23 22:05:00,
2013-07-23 15:15:00,72.7,56.1,29.99,NNE,25,9.0,9.0,56,0.00,,,0.00,657,Wunderground v.1.15,2013-07-23 22:15:00,
2013-07-23 15:25:00,72.5,54.9,29.99,NNE,12,9.0,10.0,54,0.00,,,0.00,473,Wunderground v.1.15,2013-07-23 22:25:00,
2013-07-23 15:35:00,72.7,55.6,29.99,NE,35,8.0,8.0,55,0.00,,,0.00,775,Wunderground v.1.15,2013-07-23 22:35:00,
2013-07-23 15:45:00,72.9,54.8,29.99,NNE,32,8.0,10.0,53,0.00,,,0.00,935,Wunderground v.1.15,2013-07-23 22:45:00,
2013-07-23 15:55:00,73.3,55.1,29.99,NNE,30,8.0,11.0,53,0.00,,,0.00,963,Wunderground v.1.15,2013-07-23 22:55:00,
2013-07-23 16:05:00,72.8,55.2,29.98,North,5,9.0,9.0,54,0.00,,,0.00,738,Wunderground v.1.15,2013-07-23 23:05:00,
2013-07-23 16:15:00,72.6,55.0,29.99,NE,38,7.0,7.0,54,0.00,,,0.00,420,Wunderground v.1.15,2013-07-23 23:15:00,
2013-07-23 16:25:00,71.7,55.2,29.98,NNE,25,7.0,8.0,56,0.00,,,0.00,371,Wunderground v.1.15,2013-07-23 23:25:00,
2013-07-23 16:35:00,71.0,54.5,29.99,NNE,19,7.0,8.0,56,0.00,,,0.00,308,Wunderground v.1.15,2013-07-23 23:35:00,
2013-07-23 16:55:00,70.3,54.3,29.98,NNE,31,7.0,9.0,57,0.00,,,0.00,420,Wunderground v.1.15,2013-07-23 23:55:00,
2013-07-23 17:05:00,70.1,55.6,29.98,NNE,31,6.0,6.0,60,0.00,,,0.00,338,Wunderground v.1.15,2013-07-24 00:05:00,
2013-07-23 17:15:00,70.2,55.2,29.98,NNE,25,5.0,8.0,59,0.00,,,0.00,403,Wunderground v.1.15,2013-07-24 00:15:00,
2013-07-23 17:25:00,70.1,55.1,29.98,NE,48,6.0,6.0,59,0.00,,,0.00,345,Wunderground v.1.15,2013-07-24 00:25:00,
2013-07-23 17:35:00,69.6,54.2,29.98,NNE,30,6.0,8.0,58,0.00,,,0.00,436,Wunderground v.1.15,2013-07-24 00:35:00,
2013-07-23 17:45:00,69.3,55.3,29.97,NNE,17,6.0,6.0,61,0.00,,,0.00,234,Wunderground v.1.15,2013-07-24 00:45:00,
2013-07-23 17:55:00,69.0,54.5,29.98,NNE,27,6.0,6.0,60,0.00,,,0.00,272,Wunderground v.1.15,2013-07-24 00:55:00,
2013-07-23 18:05:00,68.8,54.8,29.98,NNE,29,6.0,7.0,61,0.00,,,0.00,504,Wunderground v.1.15,2013-07-24 01:05:00,
2013-07-23 18:15:00,68.5,55.4,29.97,NNE,25,7.0,7.0,63,0.00,,,0.00,251,Wunderground v.1.15,2013-07-24 01:15:00,
2013-07-23 18:25:00,68.5,55.4,29.97,NNE,31,6.0,6.0,63,0.00,,,0.00,399,Wunderground v.1.15,2013-07-24 01:25:00,
2013-07-23 18:35:00,69.0,55.4,29.97,NE,38,6.0,6.0,62,0.00,,,0.00,325,Wunderground v.1.15,2013-07-24 01:35:00,
2013-07-23 18:45:00,69.2,55.2,29.98,NNE,27,5.0,7.0,61,0.00,,,0.00,278,Wunderground v.1.15,2013-07-24 01:45:00,
2013-07-23 18:55:00,68.9,54.9,29.98,NNE,25,5.0,7.0,61,0.00,,,0.00,241,Wunderground v.1.15,2013-07-24 01:55:00,
2013-07-23 19:05:00,68.4,54.9,29.97,NNE,33,5.0,5.0,62,0.00,,,0.00,223,Wunderground v.1.15,2013-07-24 02:05:00,
2013-07-23 19:15:00,67.7,54.6,29.98,NNE,30,6.0,6.0,63,0.00,,,0.00,188,Wunderground v.1.15,2013-07-24 02:15:00,
2013-07-23 19:25:00,67.3,54.7,29.98,NNE,30,6.0,6.0,64,0.00,,,0.00,153,Wunderground v.1.15,2013-07-24 02:25:00,
2013-07-23 19:35:00,67.3,54.7,29.98,NNE,30,5.0,5.0,64,0.00,,,0.00,100,Wunderground v.1.15,2013-07-24 02:35:00,
2013-07-23 19:45:00,67.1,54.9,29.98,NE,36,5.0,8.0,65,0.00,,,0.00,33,Wunderground v.1.15,2013-07-24 02:45:00,
2013-07-23 19:55:00,66.4,54.3,29.98,NNE,27,6.0,6.0,65,0.00,,,0.00,44,Wunderground v.1.15,2013-07-24 02:55:00,
2013-07-23 20:05:00,65.7,53.6,29.98,NNE,32,7.0,8.0,65,0.00,,,0.00,19,Wunderground v.1.15,2013-07-24 03:05:00,
2013-07-23 20:15:00,65.2,54.0,29.98,NE,45,5.0,5.0,67,0.00,,,0.00,12,Wunderground v.1.15,2013-07-24 03:15:00,
2013-07-23 20:25:00,64.8,54.0,29.98,NE,45,2.0,2.0,68,0.00,,,0.00,0,Wunderground v.1.15,2013-07-24 03:25:00,
2013-07-23 20:35:00,64.6,53.8,29.98,NE,45,1.0,1.0,68,0.00,,,0.00,0,Wunderground v.1.15,2013-07-24 03:35:00,
2013-07-23 20:45:00,64.5,54.1,29.98,NE,45,1.0,1.0,69,0.00,,,0.00,0,Wunderground v.1.15,2013-07-24 03:45:00,
2013-07-23 20:55:00,64.3,53.9,29.99,NE,49,2.0,2.0,69,0.00,,,0.00,0,Wunderground v.1.15,2013-07-24 03:55:00,
2013-07-23 21:05:00,64.1,53.7,29.98,NE,49,1.0,2.0,69,0.00,,,0.00,0,Wunderground v.1.15,2013-07-24 04:05:00,
2013-07-23 21:15:00,64.0,53.6,29.99,NE,49,1.0,1.0,69,0.00,,,0.00,0,Wunderground v.1.15,2013-07-24 04:15:00,
2013-07-23 21:25:00,63.9,53.5,29.99,NE,49,1.0,1.0,69,0.00,,,0.00,0,Wunderground v.1.15,2013-07-24 04:25:00,
2013-07-23 21:35:00,63.7,53.3,29.99,NE,49,0.0,0.0,69,0.00,,,0.00,0,Wunderground v.1.15,2013-07-24 04:35:00,
2013-07-23 21:45:00,63.7,52.5,29.99,NE,49,0.0,0.0,67,0.00,,,0.00,0,Wunderground v.1.15,2013-07-24 04:45:00,
2013-07-23 21:55:00,63.9,52.7,29.99,NE,49,0.0,0.0,67,0.00,,,0.00,0,Wunderground v.1.15,2013-07-24 04:55:00,
2013-07-23 22:05:00,63.9,52.7,29.99,NE,49,0.0,0.0,67,0.00,,,0.00,0,Wunderground v.1.15,2013-07-24 05:05:00,
2013-07-23 22:15:00,63.9,53.1,29.99,NE,49,0.0,0.0,68,0.00,,,0.00,0,Wunderground v.1.15,2013-07-24 05:15:00,
2013-07-23 22:25:00,63.6,53.2,29.99,NE,49,0.0,0.0,69,0.00,,,0.00,0,Wunderground v.1.15,2013-07-24 05:25:00,
2013-07-23 22:35:00,63.5,53.5,29.99,NE,49,0.0,0.0,70,0.00,,,0.00,0,Wunderground v.1.15,2013-07-24 05:35:00,
2013-07-23 22:45:00,63.3,53.3,29.99,NE,49,0.0,0.0,70,0.00,,,0.00,0,Wunderground v.1.15,2013-07-24 05:45:00,
2013-07-23 22:55:00,63.1,53.2,29.99,NE,49,0.0,0.0,70,0.00,,,0.00,0,Wunderground v.1.15,2013-07-24 05:55:00,
2013-07-23 23:05:00,62.9,53.4,29.99,NE,49,0.0,0.0,71,0.00,,,0.00,0,Wunderground v.1.15,2013-07-24 06:05:00,
2013-07-23 23:15:00,62.8,53.6,29.99,NE,49,0.0,0.0,72,0.00,,,0.00,0,Wunderground v.1.15,2013-07-24 06:15:00,
2013-07-23 23:25:00,62.6,53.4,29.99,NE,49,0.0,0.0,72,0.00,,,0.00,0,Wunderground v.1.15,2013-07-24 06:25:00,
2013-07-23 23:35:00,62.3,53.5,29.98,NE,49,0.0,0.0,73,0.00,,,0.00,0,Wunderground v.1.15,2013-07-24 06:35:00,
2013-07-23 23:45:00,62.1,53.3,29.98,NE,49,0.0,0.0,73,0.00,,,0.00,0,Wunderground v.1.15,2013-07-24 06:45:00,
2013-07-23 23:55:00,61.8,53.4,29.98,NE,49,0.0,0.0,74,0.00,,,0.00,0,Wunderground v.1.15,2013-07-24 06:55:00,